sensor_id;sensor_type;location;lat;lon;timestamp;P1;durP1;ratioP1;P2;durP2;ratioP2
8319;SDS011;4197;42.130;24.746;2022-10-16T00:01:07;9.60;;;7.07;;
8319;SDS011;4197;42.130;24.746;2022-10-16T00:03:37;9.50;;;6.73;;
8319;SDS011;4197;42.130;24.746;2022-10-16T00:06:08;8.57;;;6.80;;
8319;SDS011;4197;42.130;24.746;2022-10-16T00:08:37;7.83;;;6.83;;
8319;SDS011;4197;42.130;24.746;2022-10-16T00:11:06;9.23;;;6.47;;
8319;SDS011;4197;42.130;24.746;2022-10-16T00:13:37;10.07;;;7.53;;
8319;SDS011;4197;42.130;24.746;2022-10-16T00:16:07;13.60;;;7.43;;
8319;SDS011;4197;42.130;24.746;2022-10-16T00:18:35;11.67;;;7.53;;
8319;SDS011;4197;42.130;24.746;2022-10-16T00:21:05;9.33;;;7.17;;
8319;SDS011;4197;42.130;24.746;2022-10-16T00:23:35;7.83;;;7.03;;
8319;SDS011;4197;42.130;24.746;2022-10-16T00:26:05;9.43;;;6.63;;
8319;SDS011;4197;42.130;24.746;2022-10-16T00:28:35;19.80;;;7.73;;
8319;SDS011;4197;42.130;24.746;2022-10-16T00:31:03;14.73;;;7.30;;
8319;SDS011;4197;42.130;24.746;2022-10-16T00:33:32;10.67;;;7.77;;
8319;SDS011;4197;42.130;24.746;2022-10-16T00:36:01;9.13;;;7.17;;
8319;SDS011;4197;42.130;24.746;2022-10-16T00:38:32;10.50;;;7.37;;
8319;SDS011;4197;42.130;24.746;2022-10-16T00:41:02;9.10;;;7.00;;
8319;SDS011;4197;42.130;24.746;2022-10-16T00:43:34;9.63;;;7.97;;
8319;SDS011;4197;42.130;24.746;2022-10-16T00:46:09;11.47;;;7.93;;
8319;SDS011;4197;42.130;24.746;2022-10-16T00:48:43;10.73;;;7.90;;
8319;SDS011;4197;42.130;24.746;2022-10-16T00:51:14;11.07;;;7.10;;
8319;SDS011;4197;42.130;24.746;2022-10-16T00:53:43;9.83;;;7.20;;
8319;SDS011;4197;42.130;24.746;2022-10-16T00:56:13;15.10;;;8.03;;
8319;SDS011;4197;42.130;24.746;2022-10-16T00:58:42;10.73;;;7.90;;
8319;SDS011;4197;42.130;24.746;2022-10-16T01:01:10;11.10;;;7.80;;
8319;SDS011;4197;42.130;24.746;2022-10-16T01:03:38;14.80;;;8.20;;
8319;SDS011;4197;42.130;24.746;2022-10-16T01:06:12;15.53;;;7.80;;
8319;SDS011;4197;42.130;24.746;2022-10-16T01:08:59;16.80;;;8.13;;
8319;SDS011;4197;42.130;24.746;2022-10-16T01:11:38;15.97;;;7.73;;
8319;SDS011;4197;42.130;24.746;2022-10-16T01:14:14;13.73;;;8.43;;
8319;SDS011;4197;42.130;24.746;2022-10-16T01:16:48;14.43;;;8.83;;
8319;SDS011;4197;42.130;24.746;2022-10-16T01:19:25;11.73;;;8.57;;
8319;SDS011;4197;42.130;24.746;2022-10-16T01:22:07;14.00;;;9.60;;
8319;SDS011;4197;42.130;24.746;2022-10-16T01:24:38;14.57;;;10.03;;
8319;SDS011;4197;42.130;24.746;2022-10-16T01:27:10;12.73;;;10.57;;
8319;SDS011;4197;42.130;24.746;2022-10-16T01:29:42;12.00;;;9.17;;
8319;SDS011;4197;42.130;24.746;2022-10-16T01:32:17;12.63;;;10.03;;
8319;SDS011;4197;42.130;24.746;2022-10-16T01:34:50;13.67;;;9.70;;
8319;SDS011;4197;42.130;24.746;2022-10-16T01:37:25;22.07;;;10.87;;
8319;SDS011;4197;42.130;24.746;2022-10-16T01:40:00;16.10;;;10.50;;
8319;SDS011;4197;42.130;24.746;2022-10-16T01:42:35;11.87;;;9.40;;
8319;SDS011;4197;42.130;24.746;2022-10-16T01:45:07;16.60;;;9.93;;
8319;SDS011;4197;42.130;24.746;2022-10-16T01:47:38;14.60;;;9.83;;
8319;SDS011;4197;42.130;24.746;2022-10-16T01:50:07;17.43;;;10.13;;
8319;SDS011;4197;42.130;24.746;2022-10-16T01:52:37;13.47;;;9.30;;
8319;SDS011;4197;42.130;24.746;2022-10-16T01:55:08;13.30;;;10.07;;
8319;SDS011;4197;42.130;24.746;2022-10-16T01:57:42;18.03;;;10.03;;
8319;SDS011;4197;42.130;24.746;2022-10-16T02:00:15;16.67;;;9.80;;
8319;SDS011;4197;42.130;24.746;2022-10-16T02:02:48;14.00;;;10.40;;
8319;SDS011;4197;42.130;24.746;2022-10-16T02:05:20;15.57;;;10.40;;
8319;SDS011;4197;42.130;24.746;2022-10-16T02:07:52;15.70;;;10.93;;
8319;SDS011;4197;42.130;24.746;2022-10-16T02:10:21;22.60;;;10.43;;
8319;SDS011;4197;42.130;24.746;2022-10-16T02:12:53;13.17;;;10.30;;
8319;SDS011;4197;42.130;24.746;2022-10-16T02:15:26;12.97;;;9.20;;
8319;SDS011;4197;42.130;24.746;2022-10-16T02:17:54;16.87;;;10.33;;
8319;SDS011;4197;42.130;24.746;2022-10-16T02:20:25;16.37;;;10.97;;
8319;SDS011;4197;42.130;24.746;2022-10-16T02:22:54;15.70;;;10.60;;
8319;SDS011;4197;42.130;24.746;2022-10-16T02:25:25;13.47;;;9.20;;
8319;SDS011;4197;42.130;24.746;2022-10-16T02:27:59;17.83;;;10.03;;
8319;SDS011;4197;42.130;24.746;2022-10-16T02:30:32;18.07;;;10.00;;
8319;SDS011;4197;42.130;24.746;2022-10-16T02:33:04;18.33;;;10.47;;
8319;SDS011;4197;42.130;24.746;2022-10-16T02:35:36;16.97;;;11.13;;
8319;SDS011;4197;42.130;24.746;2022-10-16T02:38:05;17.53;;;10.40;;
8319;SDS011;4197;42.130;24.746;2022-10-16T02:40:36;15.30;;;10.23;;
8319;SDS011;4197;42.130;24.746;2022-10-16T02:43:06;15.40;;;10.53;;
8319;SDS011;4197;42.130;24.746;2022-10-16T02:45:34;13.20;;;10.20;;
8319;SDS011;4197;42.130;24.746;2022-10-16T02:48:02;14.83;;;11.03;;
8319;SDS011;4197;42.130;24.746;2022-10-16T02:50:31;15.43;;;11.07;;
8319;SDS011;4197;42.130;24.746;2022-10-16T02:52:58;16.30;;;10.50;;
8319;SDS011;4197;42.130;24.746;2022-10-16T02:55:27;18.97;;;10.50;;
8319;SDS011;4197;42.130;24.746;2022-10-16T02:57:55;16.80;;;11.67;;
8319;SDS011;4197;42.130;24.746;2022-10-16T03:00:24;18.37;;;11.30;;
8319;SDS011;4197;42.130;24.746;2022-10-16T03:02:52;17.27;;;11.77;;
8319;SDS011;4197;42.130;24.746;2022-10-16T03:05:20;16.63;;;11.73;;
8319;SDS011;4197;42.130;24.746;2022-10-16T03:07:49;14.13;;;11.37;;
8319;SDS011;4197;42.130;24.746;2022-10-16T03:10:17;15.60;;;11.90;;
8319;SDS011;4197;42.130;24.746;2022-10-16T03:12:45;15.87;;;11.63;;
8319;SDS011;4197;42.130;24.746;2022-10-16T03:15:14;15.60;;;11.70;;
8319;SDS011;4197;42.130;24.746;2022-10-16T03:17:44;16.57;;;11.27;;
8319;SDS011;4197;42.130;24.746;2022-10-16T03:20:12;17.97;;;10.90;;
8319;SDS011;4197;42.130;24.746;2022-10-16T03:22:40;14.83;;;11.27;;
8319;SDS011;4197;42.130;24.746;2022-10-16T03:25:08;13.40;;;10.87;;
8319;SDS011;4197;42.130;24.746;2022-10-16T03:27:36;14.90;;;11.47;;
8319;SDS011;4197;42.130;24.746;2022-10-16T03:30:04;17.90;;;12.47;;
8319;SDS011;4197;42.130;24.746;2022-10-16T03:32:33;17.70;;;13.13;;
8319;SDS011;4197;42.130;24.746;2022-10-16T03:35:08;21.67;;;13.40;;
8319;SDS011;4197;42.130;24.746;2022-10-16T03:37:36;19.50;;;12.17;;
8319;SDS011;4197;42.130;24.746;2022-10-16T03:40:04;21.27;;;12.43;;
8319;SDS011;4197;42.130;24.746;2022-10-16T03:42:33;17.80;;;13.20;;
8319;SDS011;4197;42.130;24.746;2022-10-16T03:45:01;18.73;;;12.57;;
8319;SDS011;4197;42.130;24.746;2022-10-16T03:47:29;20.97;;;13.20;;
8319;SDS011;4197;42.130;24.746;2022-10-16T03:49:59;19.47;;;12.47;;
8319;SDS011;4197;42.130;24.746;2022-10-16T03:52:29;20.87;;;12.27;;
8319;SDS011;4197;42.130;24.746;2022-10-16T03:54:58;17.90;;;13.10;;
8319;SDS011;4197;42.130;24.746;2022-10-16T03:57:26;16.47;;;13.43;;
8319;SDS011;4197;42.130;24.746;2022-10-16T03:59:55;17.50;;;13.23;;
8319;SDS011;4197;42.130;24.746;2022-10-16T04:02:23;20.83;;;13.30;;
8319;SDS011;4197;42.130;24.746;2022-10-16T04:04:51;19.60;;;13.23;;
8319;SDS011;4197;42.130;24.746;2022-10-16T04:07:20;21.87;;;13.07;;
8319;SDS011;4197;42.130;24.746;2022-10-16T04:09:50;16.23;;;13.03;;
8319;SDS011;4197;42.130;24.746;2022-10-16T04:12:18;18.47;;;13.67;;
8319;SDS011;4197;42.130;24.746;2022-10-16T04:14:46;21.77;;;13.27;;
8319;SDS011;4197;42.130;24.746;2022-10-16T04:17:14;15.73;;;12.53;;
8319;SDS011;4197;42.130;24.746;2022-10-16T04:19:42;17.13;;;12.03;;
8319;SDS011;4197;42.130;24.746;2022-10-16T04:22:11;17.90;;;12.77;;
8319;SDS011;4197;42.130;24.746;2022-10-16T04:24:39;17.33;;;12.53;;
8319;SDS011;4197;42.130;24.746;2022-10-16T04:27:09;15.73;;;11.73;;
8319;SDS011;4197;42.130;24.746;2022-10-16T04:29:37;17.10;;;11.70;;
8319;SDS011;4197;42.130;24.746;2022-10-16T04:32:06;16.70;;;12.00;;
8319;SDS011;4197;42.130;24.746;2022-10-16T04:34:36;16.77;;;11.93;;
8319;SDS011;4197;42.130;24.746;2022-10-16T04:37:04;21.27;;;11.80;;
8319;SDS011;4197;42.130;24.746;2022-10-16T04:39:32;15.47;;;11.27;;
8319;SDS011;4197;42.130;24.746;2022-10-16T04:42:01;14.37;;;12.13;;
8319;SDS011;4197;42.130;24.746;2022-10-16T04:44:30;15.03;;;12.00;;
8319;SDS011;4197;42.130;24.746;2022-10-16T04:46:58;15.27;;;11.20;;
8319;SDS011;4197;42.130;24.746;2022-10-16T04:49:27;13.27;;;11.80;;
8319;SDS011;4197;42.130;24.746;2022-10-16T04:51:55;14.30;;;11.60;;
8319;SDS011;4197;42.130;24.746;2022-10-16T04:54:23;16.90;;;11.23;;
8319;SDS011;4197;42.130;24.746;2022-10-16T04:56:51;15.83;;;12.07;;
8319;SDS011;4197;42.130;24.746;2022-10-16T04:59:19;17.27;;;10.80;;
8319;SDS011;4197;42.130;24.746;2022-10-16T05:01:49;20.00;;;12.60;;
8319;SDS011;4197;42.130;24.746;2022-10-16T05:04:17;15.77;;;10.97;;
8319;SDS011;4197;42.130;24.746;2022-10-16T05:06:47;18.90;;;13.20;;
8319;SDS011;4197;42.130;24.746;2022-10-16T05:09:15;23.63;;;14.53;;
8319;SDS011;4197;42.130;24.746;2022-10-16T05:11:43;30.07;;;21.37;;
8319;SDS011;4197;42.130;24.746;2022-10-16T05:14:12;20.93;;;14.80;;
8319;SDS011;4197;42.130;24.746;2022-10-16T05:16:40;21.53;;;16.40;;
8319;SDS011;4197;42.130;24.746;2022-10-16T05:19:09;19.37;;;13.73;;
8319;SDS011;4197;42.130;24.746;2022-10-16T05:21:55;15.33;;;12.47;;
8319;SDS011;4197;42.130;24.746;2022-10-16T05:24:23;18.63;;;13.20;;
8319;SDS011;4197;42.130;24.746;2022-10-16T05:26:51;16.30;;;12.40;;
8319;SDS011;4197;42.130;24.746;2022-10-16T05:29:19;22.83;;;11.33;;
8319;SDS011;4197;42.130;24.746;2022-10-16T05:31:49;21.57;;;12.43;;
8319;SDS011;4197;42.130;24.746;2022-10-16T05:34:20;16.27;;;12.17;;
8319;SDS011;4197;42.130;24.746;2022-10-16T05:36:48;18.97;;;12.70;;
8319;SDS011;4197;42.130;24.746;2022-10-16T05:39:17;15.23;;;11.73;;
8319;SDS011;4197;42.130;24.746;2022-10-16T05:41:45;17.53;;;11.57;;
8319;SDS011;4197;42.130;24.746;2022-10-16T05:44:13;16.77;;;12.33;;
8319;SDS011;4197;42.130;24.746;2022-10-16T05:46:41;17.87;;;12.93;;
8319;SDS011;4197;42.130;24.746;2022-10-16T05:49:09;19.43;;;12.50;;
8319;SDS011;4197;42.130;24.746;2022-10-16T05:51:39;18.97;;;12.40;;
8319;SDS011;4197;42.130;24.746;2022-10-16T05:54:08;14.77;;;11.53;;
8319;SDS011;4197;42.130;24.746;2022-10-16T05:56:36;19.43;;;12.20;;
8319;SDS011;4197;42.130;24.746;2022-10-16T05:59:05;14.63;;;11.00;;
8319;SDS011;4197;42.130;24.746;2022-10-16T06:01:33;14.73;;;11.27;;
8319;SDS011;4197;42.130;24.746;2022-10-16T06:04:02;14.10;;;9.77;;
8319;SDS011;4197;42.130;24.746;2022-10-16T06:06:30;12.27;;;9.70;;
8319;SDS011;4197;42.130;24.746;2022-10-16T06:08:59;17.07;;;10.30;;
8319;SDS011;4197;42.130;24.746;2022-10-16T06:11:28;15.23;;;9.67;;
8319;SDS011;4197;42.130;24.746;2022-10-16T06:13:59;15.07;;;8.93;;
8319;SDS011;4197;42.130;24.746;2022-10-16T06:16:33;12.33;;;8.13;;
8319;SDS011;4197;42.130;24.746;2022-10-16T06:19:02;13.57;;;8.27;;
8319;SDS011;4197;42.130;24.746;2022-10-16T06:21:32;11.57;;;8.43;;
8319;SDS011;4197;42.130;24.746;2022-10-16T06:24:02;13.17;;;9.47;;
8319;SDS011;4197;42.130;24.746;2022-10-16T06:26:30;18.43;;;10.47;;
8319;SDS011;4197;42.130;24.746;2022-10-16T06:28:59;14.47;;;9.00;;
8319;SDS011;4197;42.130;24.746;2022-10-16T06:31:28;12.97;;;9.60;;
8319;SDS011;4197;42.130;24.746;2022-10-16T06:34:00;13.10;;;9.33;;
8319;SDS011;4197;42.130;24.746;2022-10-16T06:36:29;12.63;;;9.23;;
8319;SDS011;4197;42.130;24.746;2022-10-16T06:38:57;14.50;;;8.70;;
8319;SDS011;4197;42.130;24.746;2022-10-16T06:41:27;12.23;;;9.10;;
8319;SDS011;4197;42.130;24.746;2022-10-16T06:43:55;14.83;;;9.03;;
8319;SDS011;4197;42.130;24.746;2022-10-16T06:46:24;14.10;;;7.87;;
8319;SDS011;4197;42.130;24.746;2022-10-16T06:48:53;15.60;;;8.33;;
8319;SDS011;4197;42.130;24.746;2022-10-16T06:51:22;13.30;;;8.87;;
8319;SDS011;4197;42.130;24.746;2022-10-16T06:53:51;9.93;;;8.57;;
8319;SDS011;4197;42.130;24.746;2022-10-16T06:56:31;15.13;;;9.13;;
8319;SDS011;4197;42.130;24.746;2022-10-16T06:59:00;14.20;;;8.27;;
8319;SDS011;4197;42.130;24.746;2022-10-16T07:01:29;9.60;;;7.77;;
8319;SDS011;4197;42.130;24.746;2022-10-16T07:03:57;10.47;;;8.40;;
8319;SDS011;4197;42.130;24.746;2022-10-16T07:06:26;12.10;;;8.63;;
8319;SDS011;4197;42.130;24.746;2022-10-16T07:08:54;11.67;;;8.50;;
8319;SDS011;4197;42.130;24.746;2022-10-16T07:11:23;13.97;;;9.50;;
8319;SDS011;4197;42.130;24.746;2022-10-16T07:13:53;11.27;;;8.77;;
8319;SDS011;4197;42.130;24.746;2022-10-16T07:16:22;13.27;;;9.27;;
8319;SDS011;4197;42.130;24.746;2022-10-16T07:18:53;11.77;;;9.10;;
8319;SDS011;4197;42.130;24.746;2022-10-16T07:21:26;9.33;;;8.43;;
8319;SDS011;4197;42.130;24.746;2022-10-16T07:23:55;17.43;;;10.17;;
8319;SDS011;4197;42.130;24.746;2022-10-16T07:26:26;9.30;;;8.20;;
8319;SDS011;4197;42.130;24.746;2022-10-16T07:28:57;11.40;;;8.40;;
8319;SDS011;4197;42.130;24.746;2022-10-16T07:31:26;10.07;;;7.93;;
8319;SDS011;4197;42.130;24.746;2022-10-16T07:33:55;12.37;;;8.30;;
8319;SDS011;4197;42.130;24.746;2022-10-16T07:36:25;14.57;;;7.97;;
8319;SDS011;4197;42.130;24.746;2022-10-16T07:38:54;10.80;;;8.33;;
8319;SDS011;4197;42.130;24.746;2022-10-16T07:41:25;11.47;;;8.43;;
8319;SDS011;4197;42.130;24.746;2022-10-16T07:43:54;12.70;;;8.87;;
8319;SDS011;4197;42.130;24.746;2022-10-16T07:46:25;11.63;;;8.83;;
8319;SDS011;4197;42.130;24.746;2022-10-16T07:48:54;10.47;;;8.30;;
8319;SDS011;4197;42.130;24.746;2022-10-16T07:51:23;9.90;;;7.87;;
8319;SDS011;4197;42.130;24.746;2022-10-16T07:53:52;11.70;;;8.43;;
8319;SDS011;4197;42.130;24.746;2022-10-16T07:56:21;11.27;;;8.97;;
8319;SDS011;4197;42.130;24.746;2022-10-16T07:58:49;11.73;;;8.70;;
8319;SDS011;4197;42.130;24.746;2022-10-16T08:01:18;11.87;;;7.93;;
8319;SDS011;4197;42.130;24.746;2022-10-16T08:03:49;14.93;;;8.27;;
8319;SDS011;4197;42.130;24.746;2022-10-16T08:06:18;9.97;;;7.63;;
8319;SDS011;4197;42.130;24.746;2022-10-16T08:08:53;12.70;;;8.27;;
8319;SDS011;4197;42.130;24.746;2022-10-16T08:11:22;11.00;;;7.80;;
8319;SDS011;4197;42.130;24.746;2022-10-16T08:13:51;11.73;;;8.00;;
8319;SDS011;4197;42.130;24.746;2022-10-16T08:16:19;11.13;;;7.73;;
8319;SDS011;4197;42.130;24.746;2022-10-16T08:18:49;11.73;;;7.10;;
8319;SDS011;4197;42.130;24.746;2022-10-16T08:21:19;10.20;;;7.20;;
8319;SDS011;4197;42.130;24.746;2022-10-16T08:23:49;11.37;;;7.67;;
8319;SDS011;4197;42.130;24.746;2022-10-16T08:26:24;9.87;;;7.10;;
8319;SDS011;4197;42.130;24.746;2022-10-16T08:28:53;8.73;;;7.10;;
8319;SDS011;4197;42.130;24.746;2022-10-16T08:31:22;10.70;;;7.57;;
8319;SDS011;4197;42.130;24.746;2022-10-16T08:33:52;11.60;;;7.37;;
8319;SDS011;4197;42.130;24.746;2022-10-16T08:36:20;10.30;;;7.53;;
8319;SDS011;4197;42.130;24.746;2022-10-16T08:38:48;8.20;;;7.27;;
8319;SDS011;4197;42.130;24.746;2022-10-16T08:41:31;9.37;;;6.80;;
8319;SDS011;4197;42.130;24.746;2022-10-16T08:44:28;8.67;;;7.03;;
8319;SDS011;4197;42.130;24.746;2022-10-16T08:47:06;7.77;;;6.87;;
8319;SDS011;4197;42.130;24.746;2022-10-16T08:49:47;11.80;;;6.13;;
8319;SDS011;4197;42.130;24.746;2022-10-16T08:52:23;10.97;;;6.50;;
8319;SDS011;4197;42.130;24.746;2022-10-16T08:54:56;22.23;;;7.47;;
8319;SDS011;4197;42.130;24.746;2022-10-16T08:57:25;18.93;;;6.63;;
8319;SDS011;4197;42.130;24.746;2022-10-16T08:59:54;11.27;;;6.75;;
8319;SDS011;4197;42.130;24.746;2022-10-16T09:02:29;14.40;;;7.70;;
8319;SDS011;4197;42.130;24.746;2022-10-16T09:05:05;8.17;;;6.23;;
8319;SDS011;4197;42.130;24.746;2022-10-16T09:07:46;11.25;;;6.30;;
8319;SDS011;4197;42.130;24.746;2022-10-16T09:10:26;8.65;;;6.07;;
8319;SDS011;4197;42.130;24.746;2022-10-16T09:13:07;9.27;;;5.77;;
8319;SDS011;4197;42.130;24.746;2022-10-16T09:15:43;12.35;;;7.25;;
8319;SDS011;4197;42.130;24.746;2022-10-16T09:18:21;10.00;;;5.82;;
8319;SDS011;4197;42.130;24.746;2022-10-16T09:21:00;10.60;;;6.03;;
8319;SDS011;4197;42.130;24.746;2022-10-16T09:23:35;10.13;;;5.63;;
8319;SDS011;4197;42.130;24.746;2022-10-16T09:26:04;7.72;;;5.82;;
8319;SDS011;4197;42.130;24.746;2022-10-16T09:28:37;12.67;;;6.97;;
8319;SDS011;4197;42.130;24.746;2022-10-16T09:31:07;11.25;;;6.30;;
8319;SDS011;4197;42.130;24.746;2022-10-16T09:33:43;9.02;;;5.85;;
8319;SDS011;4197;42.130;24.746;2022-10-16T09:36:16;10.20;;;5.80;;
8319;SDS011;4197;42.130;24.746;2022-10-16T09:38:46;8.73;;;5.03;;
8319;SDS011;4197;42.130;24.746;2022-10-16T09:41:17;10.80;;;6.00;;
8319;SDS011;4197;42.130;24.746;2022-10-16T09:43:47;7.43;;;5.38;;
8319;SDS011;4197;42.130;24.746;2022-10-16T09:46:25;8.00;;;4.88;;
8319;SDS011;4197;42.130;24.746;2022-10-16T09:48:55;6.63;;;5.70;;
8319;SDS011;4197;42.130;24.746;2022-10-16T09:51:27;8.75;;;5.80;;
8319;SDS011;4197;42.130;24.746;2022-10-16T09:53:57;6.70;;;4.85;;
8319;SDS011;4197;42.130;24.746;2022-10-16T09:56:27;7.45;;;6.35;;
8319;SDS011;4197;42.130;24.746;2022-10-16T09:58:57;8.23;;;5.93;;
8319;SDS011;4197;42.130;24.746;2022-10-16T10:01:29;6.95;;;5.13;;
8319;SDS011;4197;42.130;24.746;2022-10-16T10:03:59;7.85;;;5.60;;
8319;SDS011;4197;42.130;24.746;2022-10-16T10:06:31;6.78;;;5.15;;
8319;SDS011;4197;42.130;24.746;2022-10-16T10:09:05;6.28;;;4.70;;
8319;SDS011;4197;42.130;24.746;2022-10-16T10:11:43;7.53;;;5.15;;
8319;SDS011;4197;42.130;24.746;2022-10-16T10:14:28;6.10;;;4.50;;
8319;SDS011;4197;42.130;24.746;2022-10-16T10:19:48;6.55;;;4.40;;
8319;SDS011;4197;42.130;24.746;2022-10-16T10:22:21;5.15;;;4.65;;
8319;SDS011;4197;42.130;24.746;2022-10-16T10:24:56;8.23;;;5.63;;
8319;SDS011;4197;42.130;24.746;2022-10-16T10:27:28;9.98;;;6.00;;
8319;SDS011;4197;42.130;24.746;2022-10-16T10:30:04;6.35;;;4.65;;
8319;SDS011;4197;42.130;24.746;2022-10-16T10:32:40;7.13;;;4.88;;
8319;SDS011;4197;42.130;24.746;2022-10-16T10:35:20;6.13;;;5.30;;
8319;SDS011;4197;42.130;24.746;2022-10-16T10:38:02;6.15;;;5.47;;
8319;SDS011;4197;42.130;24.746;2022-10-16T10:40:45;7.75;;;5.00;;
8319;SDS011;4197;42.130;24.746;2022-10-16T10:43:25;15.70;;;4.88;;
8319;SDS011;4197;42.130;24.746;2022-10-16T10:46:06;8.07;;;4.93;;
8319;SDS011;4197;42.130;24.746;2022-10-16T10:48:48;7.80;;;5.00;;
8319;SDS011;4197;42.130;24.746;2022-10-16T10:51:28;6.40;;;4.70;;
8319;SDS011;4197;42.130;24.746;2022-10-16T10:54:09;8.60;;;5.38;;
8319;SDS011;4197;42.130;24.746;2022-10-16T10:56:49;6.53;;;4.90;;
8319;SDS011;4197;42.130;24.746;2022-10-16T10:59:37;7.90;;;5.25;;
8319;SDS011;4197;42.130;24.746;2022-10-16T11:02:22;10.38;;;4.47;;
8319;SDS011;4197;42.130;24.746;2022-10-16T11:05:01;7.97;;;4.40;;
8319;SDS011;4197;42.130;24.746;2022-10-16T11:07:48;9.50;;;5.13;;
8319;SDS011;4197;42.130;24.746;2022-10-16T11:10:22;7.07;;;4.60;;
8319;SDS011;4197;42.130;24.746;2022-10-16T11:12:55;6.10;;;4.63;;
8319;SDS011;4197;42.130;24.746;2022-10-16T11:15:29;8.65;;;3.97;;
8319;SDS011;4197;42.130;24.746;2022-10-16T11:18:01;6.00;;;4.78;;
8319;SDS011;4197;42.130;24.746;2022-10-16T11:20:34;9.02;;;4.60;;
8319;SDS011;4197;42.130;24.746;2022-10-16T11:23:10;5.80;;;4.07;;
8319;SDS011;4197;42.130;24.746;2022-10-16T11:25:45;9.75;;;4.13;;
8319;SDS011;4197;42.130;24.746;2022-10-16T11:28:16;5.40;;;4.10;;
8319;SDS011;4197;42.130;24.746;2022-10-16T11:30:52;8.10;;;4.68;;
8319;SDS011;4197;42.130;24.746;2022-10-16T11:33:27;6.35;;;3.42;;
8319;SDS011;4197;42.130;24.746;2022-10-16T11:36:00;5.22;;;3.80;;
8319;SDS011;4197;42.130;24.746;2022-10-16T11:38:34;6.07;;;4.28;;
8319;SDS011;4197;42.130;24.746;2022-10-16T11:41:15;4.25;;;3.72;;
8319;SDS011;4197;42.130;24.746;2022-10-16T11:43:52;4.63;;;3.88;;
8319;SDS011;4197;42.130;24.746;2022-10-16T11:46:30;7.93;;;4.45;;
8319;SDS011;4197;42.130;24.746;2022-10-16T11:49:21;6.05;;;3.92;;
8319;SDS011;4197;42.130;24.746;2022-10-16T11:51:55;6.45;;;4.07;;
8319;SDS011;4197;42.130;24.746;2022-10-16T11:54:35;5.90;;;4.10;;
8319;SDS011;4197;42.130;24.746;2022-10-16T11:57:13;5.10;;;4.22;;
8319;SDS011;4197;42.130;24.746;2022-10-16T11:59:46;7.03;;;4.45;;
8319;SDS011;4197;42.130;24.746;2022-10-16T12:02:30;6.68;;;3.95;;
8319;SDS011;4197;42.130;24.746;2022-10-16T12:05:07;4.18;;;3.75;;
8319;SDS011;4197;42.130;24.746;2022-10-16T12:07:48;6.93;;;4.45;;
8319;SDS011;4197;42.130;24.746;2022-10-16T12:10:22;6.68;;;4.38;;
8319;SDS011;4197;42.130;24.746;2022-10-16T12:12:54;4.72;;;3.83;;
8319;SDS011;4197;42.130;24.746;2022-10-16T12:15:25;5.85;;;4.55;;
8319;SDS011;4197;42.130;24.746;2022-10-16T12:18:21;6.63;;;4.95;;
8319;SDS011;4197;42.130;24.746;2022-10-16T12:20:54;5.68;;;4.00;;
8319;SDS011;4197;42.130;24.746;2022-10-16T12:23:27;9.88;;;4.00;;
8319;SDS011;4197;42.130;24.746;2022-10-16T12:25:56;5.50;;;4.47;;
8319;SDS011;4197;42.130;24.746;2022-10-16T12:28:28;6.55;;;4.22;;
8319;SDS011;4197;42.130;24.746;2022-10-16T12:30:58;6.65;;;4.38;;
8319;SDS011;4197;42.130;24.746;2022-10-16T12:33:29;7.28;;;4.60;;
8319;SDS011;4197;42.130;24.746;2022-10-16T12:35:59;8.38;;;4.70;;
8319;SDS011;4197;42.130;24.746;2022-10-16T12:38:30;5.65;;;4.15;;
8319;SDS011;4197;42.130;24.746;2022-10-16T12:41:23;5.95;;;4.93;;
8319;SDS011;4197;42.130;24.746;2022-10-16T12:43:54;5.28;;;4.38;;
8319;SDS011;4197;42.130;24.746;2022-10-16T12:46:24;7.82;;;4.75;;
8319;SDS011;4197;42.130;24.746;2022-10-16T12:49:06;6.63;;;4.15;;
8319;SDS011;4197;42.130;24.746;2022-10-16T12:51:47;5.72;;;4.57;;
8319;SDS011;4197;42.130;24.746;2022-10-16T12:54:16;7.63;;;4.47;;
8319;SDS011;4197;42.130;24.746;2022-10-16T12:56:49;9.93;;;4.97;;
8319;SDS011;4197;42.130;24.746;2022-10-16T12:59:35;5.20;;;4.68;;
8319;SDS011;4197;42.130;24.746;2022-10-16T13:05:21;6.38;;;4.85;;
8319;SDS011;4197;42.130;24.746;2022-10-16T13:08:01;5.07;;;4.43;;
8319;SDS011;4197;42.130;24.746;2022-10-16T13:10:45;11.20;;;5.32;;
8319;SDS011;4197;42.130;24.746;2022-10-16T13:13:32;13.80;;;5.75;;
8319;SDS011;4197;42.130;24.746;2022-10-16T13:16:13;8.95;;;5.65;;
8319;SDS011;4197;42.130;24.746;2022-10-16T13:18:51;8.90;;;5.30;;
8319;SDS011;4197;42.130;24.746;2022-10-16T13:21:32;6.95;;;4.70;;
8319;SDS011;4197;42.130;24.746;2022-10-16T13:24:10;7.20;;;5.18;;
8319;SDS011;4197;42.130;24.746;2022-10-16T13:26:46;5.72;;;4.43;;
8319;SDS011;4197;42.130;24.746;2022-10-16T13:29:22;6.32;;;4.30;;
8319;SDS011;4197;42.130;24.746;2022-10-16T13:31:52;6.32;;;4.82;;
8319;SDS011;4197;42.130;24.746;2022-10-16T13:34:21;8.18;;;4.65;;
8319;SDS011;4197;42.130;24.746;2022-10-16T13:36:50;5.32;;;4.45;;
8319;SDS011;4197;42.130;24.746;2022-10-16T13:39:23;9.77;;;5.22;;
8319;SDS011;4197;42.130;24.746;2022-10-16T13:42:01;9.38;;;5.25;;
8319;SDS011;4197;42.130;24.746;2022-10-16T13:44:35;9.68;;;5.32;;
8319;SDS011;4197;42.130;24.746;2022-10-16T13:47:12;6.35;;;4.07;;
8319;SDS011;4197;42.130;24.746;2022-10-16T13:49:43;7.13;;;4.57;;
8319;SDS011;4197;42.130;24.746;2022-10-16T13:52:18;8.30;;;4.75;;
8319;SDS011;4197;42.130;24.746;2022-10-16T13:54:47;6.20;;;4.65;;
8319;SDS011;4197;42.130;24.746;2022-10-16T13:57:15;7.32;;;4.40;;
8319;SDS011;4197;42.130;24.746;2022-10-16T13:59:53;6.40;;;4.78;;
8319;SDS011;4197;42.130;24.746;2022-10-16T14:02:25;11.57;;;8.13;;
8319;SDS011;4197;42.130;24.746;2022-10-16T14:04:55;6.85;;;4.68;;
8319;SDS011;4197;42.130;24.746;2022-10-16T14:07:25;9.27;;;5.45;;
8319;SDS011;4197;42.130;24.746;2022-10-16T14:09:55;6.70;;;5.25;;
8319;SDS011;4197;42.130;24.746;2022-10-16T14:12:26;7.15;;;5.35;;
8319;SDS011;4197;42.130;24.746;2022-10-16T14:14:55;11.07;;;5.30;;
8319;SDS011;4197;42.130;24.746;2022-10-16T14:17:27;7.55;;;5.30;;
8319;SDS011;4197;42.130;24.746;2022-10-16T14:19:57;8.77;;;4.88;;
8319;SDS011;4197;42.130;24.746;2022-10-16T14:22:44;8.85;;;5.47;;
8319;SDS011;4197;42.130;24.746;2022-10-16T14:28:00;8.43;;;6.03;;
8319;SDS011;4197;42.130;24.746;2022-10-16T14:30:31;9.25;;;4.93;;
8319;SDS011;4197;42.130;24.746;2022-10-16T14:33:02;6.30;;;5.32;;
8319;SDS011;4197;42.130;24.746;2022-10-16T14:35:33;10.90;;;6.32;;
8319;SDS011;4197;42.130;24.746;2022-10-16T14:38:04;10.25;;;5.30;;
8319;SDS011;4197;42.130;24.746;2022-10-16T14:40:34;8.88;;;6.18;;
8319;SDS011;4197;42.130;24.746;2022-10-16T14:43:05;10.15;;;5.85;;
8319;SDS011;4197;42.130;24.746;2022-10-16T14:45:34;7.97;;;5.35;;
8319;SDS011;4197;42.130;24.746;2022-10-16T14:48:06;10.27;;;5.35;;
8319;SDS011;4197;42.130;24.746;2022-10-16T14:50:45;7.38;;;6.30;;
8319;SDS011;4197;42.130;24.746;2022-10-16T14:53:13;8.15;;;6.43;;
8319;SDS011;4197;42.130;24.746;2022-10-16T14:55:42;12.73;;;7.20;;
8319;SDS011;4197;42.130;24.746;2022-10-16T14:58:13;10.85;;;6.80;;
8319;SDS011;4197;42.130;24.746;2022-10-16T15:00:44;9.65;;;7.25;;
8319;SDS011;4197;42.130;24.746;2022-10-16T15:03:14;11.93;;;6.93;;
8319;SDS011;4197;42.130;24.746;2022-10-16T15:05:43;11.93;;;6.38;;
8319;SDS011;4197;42.130;24.746;2022-10-16T15:08:11;9.02;;;5.93;;
8319;SDS011;4197;42.130;24.746;2022-10-16T15:10:41;11.75;;;7.43;;
8319;SDS011;4197;42.130;24.746;2022-10-16T15:13:11;13.13;;;6.47;;
8319;SDS011;4197;42.130;24.746;2022-10-16T15:15:41;13.60;;;7.78;;
8319;SDS011;4197;42.130;24.746;2022-10-16T15:18:11;12.00;;;7.75;;
8319;SDS011;4197;42.130;24.746;2022-10-16T15:20:42;12.13;;;6.15;;
8319;SDS011;4197;42.130;24.746;2022-10-16T15:23:12;9.05;;;6.22;;
8319;SDS011;4197;42.130;24.746;2022-10-16T15:25:42;9.95;;;6.85;;